createdAt,value
2023-04-02T00:00:06.781Z,17.60
2023-04-02T00:02:35.285Z,17.50
2023-04-02T00:05:55.996Z,17.60
2023-04-02T00:08:27.752Z,17.50
2023-04-02T00:10:57.886Z,17.60
2023-04-02T00:13:34.182Z,17.50
2023-04-02T00:16:04.540Z,17.50
2023-04-02T00:18:34.410Z,17.50
2023-04-02T00:21:11.539Z,17.50
2023-04-02T00:23:42.036Z,17.50
2023-04-02T00:26:30.395Z,17.50
2023-04-02T00:29:00.788Z,17.50
2023-04-02T00:31:29.665Z,17.50
2023-04-02T00:33:59.699Z,17.40
2023-04-02T00:36:34.075Z,17.50
2023-04-02T00:39:08.886Z,17.50
2023-04-02T00:41:39.451Z,17.40
2023-04-02T00:44:13.803Z,17.40
2023-04-02T00:46:49.751Z,17.40
2023-04-02T00:49:26.256Z,17.40
2023-04-02T00:51:58.351Z,17.40
2023-04-02T00:54:32.356Z,17.40
2023-04-02T00:57:01.396Z,17.30
2023-04-02T00:59:33.004Z,17.30
2023-04-02T01:02:22.577Z,17.30
2023-04-02T01:04:55.363Z,17.30
2023-04-02T01:07:37.514Z,17.30
2023-04-02T01:10:37.427Z,17.30
2023-04-02T01:13:16.148Z,17.30
2023-04-02T01:15:52.322Z,17.30
2023-04-02T01:18:33.310Z,17.30
2023-04-02T01:21:16.334Z,17.30
2023-04-02T01:24:05.580Z,17.30
2023-04-02T01:26:48.077Z,17.20
2023-04-02T01:29:20.763Z,17.30
2023-04-02T01:31:50.781Z,17.20
2023-04-02T01:34:21.946Z,17.20
2023-04-02T01:37:03.832Z,17.20
2023-04-02T01:39:55.474Z,17.20
2023-04-02T01:42:30.615Z,17.20
2023-04-02T01:45:05.140Z,17.20
2023-04-02T01:47:34.125Z,17.20
2023-04-02T01:50:04.892Z,17.20
2023-04-02T01:52:40.773Z,17.20
2023-04-02T01:55:10.638Z,17.20
2023-04-02T01:57:39.095Z,17.20
2023-04-02T02:00:13.803Z,17.10
2023-04-02T02:02:43.797Z,17.20
2023-04-02T02:05:15.751Z,17.10
2023-04-02T02:07:44.774Z,17.10
2023-04-02T02:10:16.648Z,17.10
2023-04-02T02:12:46.162Z,17.00
2023-04-02T02:15:19.115Z,17.00
2023-04-02T02:17:47.941Z,17.00
2023-04-02T02:20:17.595Z,17.00
2023-04-02T02:22:48.437Z,17.00
2023-04-02T02:25:19.674Z,17.00
2023-04-02T02:27:55.158Z,17.00
2023-04-02T02:30:28.224Z,17.00
2023-04-02T02:33:02.209Z,17.00
2023-04-02T02:35:34.670Z,17.00
2023-04-02T02:38:40.055Z,17.00
2023-04-02T02:41:15.350Z,17.00
2023-04-02T02:43:49.928Z,17.00
2023-04-02T02:46:23.481Z,17.00
2023-04-02T02:48:54.547Z,17.00
2023-04-02T02:51:29.697Z,17.00
2023-04-02T02:54:02.547Z,17.00
2023-04-02T02:56:36.928Z,17.00
2023-04-02T02:59:08.264Z,17.00
2023-04-02T03:01:38.367Z,17.00
2023-04-02T03:04:06.861Z,16.90
2023-04-02T03:06:36.699Z,16.90
2023-04-02T03:09:14.215Z,16.90
2023-04-02T03:11:48.381Z,16.90
2023-04-02T03:14:24.518Z,16.90
2023-04-02T03:16:59.869Z,16.90
2023-04-02T03:19:33.892Z,16.90
2023-04-02T03:22:07.768Z,16.80
2023-04-02T03:24:39.424Z,16.80
2023-04-02T03:27:13.092Z,16.80
2023-04-02T03:29:44.891Z,16.70
2023-04-02T03:32:18.777Z,16.80
2023-04-02T03:34:50.949Z,16.70
2023-04-02T03:37:23.836Z,16.70
2023-04-02T03:39:58.327Z,16.70
2023-04-02T03:42:29.918Z,16.70
2023-04-02T03:45:01.409Z,16.70
2023-04-02T03:47:35.431Z,16.70
2023-04-02T03:50:08.190Z,16.60
2023-04-02T03:52:38.490Z,16.60
2023-04-02T03:55:16.149Z,16.60
2023-04-02T03:57:53.869Z,16.60
2023-04-02T04:00:27.231Z,16.60
2023-04-02T04:03:00.258Z,16.60
2023-04-02T04:05:31.993Z,16.60
2023-04-02T04:08:04.666Z,16.60
2023-04-02T04:10:33.978Z,16.50
2023-04-02T04:13:07.000Z,16.60
2023-04-02T04:15:40.178Z,16.50
2023-04-02T04:18:19.916Z,16.50
2023-04-02T04:20:56.696Z,16.50
2023-04-02T04:23:31.178Z,16.50
2023-04-02T04:26:05.634Z,16.40
2023-04-02T04:28:42.177Z,16.40
2023-04-02T04:31:21.155Z,16.40
2023-04-02T04:34:03.384Z,16.30
2023-04-02T04:36:36.945Z,16.30
2023-04-02T04:39:10.200Z,16.30
2023-04-02T04:41:40.476Z,16.30
2023-04-02T04:44:17.442Z,16.30
2023-04-02T04:46:50.919Z,16.30
2023-04-02T04:49:25.375Z,16.20
2023-04-02T04:51:57.508Z,16.20
2023-04-02T04:54:28.200Z,16.20
2023-04-02T04:57:00.993Z,16.20
2023-04-02T04:59:32.672Z,16.10
2023-04-02T05:02:06.168Z,16.10
2023-04-02T05:04:39.132Z,16.10
2023-04-02T05:07:11.613Z,16.00
2023-04-02T05:09:45.254Z,16.00
2023-04-02T05:12:22.947Z,16.00
2023-04-02T05:14:55.444Z,16.00
2023-04-02T05:17:29.541Z,16.00
2023-04-02T05:20:07.455Z,16.00
2023-04-02T05:22:41.400Z,15.90
2023-04-02T05:25:24.519Z,15.90
2023-04-02T05:27:59.234Z,15.90
2023-04-02T05:30:49.491Z,15.90
2023-04-02T05:33:25.763Z,15.90
2023-04-02T05:36:00.791Z,15.90
2023-04-02T05:38:31.569Z,15.90
2023-04-02T05:41:06.128Z,17.10
2023-04-02T05:43:36.900Z,15.90
2023-04-02T05:46:14.888Z,15.90
2023-04-02T05:48:45.213Z,15.90
2023-04-02T05:51:20.150Z,15.90
2023-04-02T05:53:50.770Z,15.90
2023-04-02T05:56:23.044Z,15.90
2023-04-02T05:58:54.135Z,15.90
2023-04-02T06:01:40.515Z,15.90
2023-04-02T06:04:17.520Z,15.90
2023-04-02T06:06:54.548Z,15.90
2023-04-02T06:09:30.041Z,15.90
2023-04-02T06:12:05.626Z,15.90
2023-04-02T06:14:34.160Z,15.60
2023-04-02T06:17:02.509Z,15.90
2023-04-02T06:19:34.780Z,15.50
2023-04-02T06:22:17.766Z,15.80
2023-04-02T06:24:48.654Z,15.90
2023-04-02T06:27:22.802Z,15.90
2023-04-02T06:29:55.697Z,15.70
2023-04-02T06:32:27.016Z,15.80
2023-04-02T06:34:55.910Z,15.90
2023-04-02T06:37:31.564Z,15.80
2023-04-02T06:40:01.656Z,16.70
2023-04-02T06:42:35.069Z,15.70
2023-04-02T06:45:03.543Z,15.80
2023-04-02T06:47:35.529Z,16.40
2023-04-02T06:50:09.888Z,15.50
2023-04-02T06:52:46.039Z,17.50
2023-04-02T06:55:33.171Z,16.10
2023-04-02T06:58:01.904Z,16.10
2023-04-02T07:00:36.306Z,16.10
2023-04-02T07:03:08.247Z,16.10
2023-04-02T07:05:36.928Z,16.20
2023-04-02T07:08:07.955Z,16.20
2023-04-02T07:10:36.397Z,16.20
2023-04-02T07:13:05.958Z,16.20
2023-04-02T07:15:34.691Z,16.30
2023-04-02T07:18:03.435Z,16.30
2023-04-02T07:20:34.155Z,16.30
2023-04-02T07:23:02.512Z,16.30
2023-04-02T07:25:32.366Z,16.40
2023-04-02T07:28:01.629Z,16.40
2023-04-02T07:30:29.917Z,16.40
2023-04-02T07:32:58.423Z,16.40
2023-04-02T07:38:12.467Z,16.50
2023-04-02T07:40:42.970Z,16.50
2023-04-02T07:43:15.320Z,16.50
2023-04-02T07:45:44.623Z,16.50
2023-04-02T07:48:18.057Z,16.50
2023-04-02T07:50:46.518Z,16.50
2023-04-02T07:53:30.037Z,16.50
2023-04-02T07:56:03.178Z,16.50
2023-04-02T07:59:37.448Z,16.50
2023-04-02T08:01:29.995Z,16.60
2023-04-02T08:04:39.797Z,16.60
2023-04-02T08:11:12.546Z,16.70
2023-04-02T08:13:42.045Z,16.70
2023-04-02T08:16:22.021Z,16.80
2023-04-02T08:18:50.635Z,16.80
2023-04-02T08:21:28.370Z,16.80
2023-04-02T08:23:56.927Z,16.90
2023-04-02T08:26:26.705Z,16.90
2023-04-02T08:41:42.236Z,17.00
2023-04-02T08:51:42.922Z,17.20
2023-04-02T09:03:51.429Z,17.30
2023-04-02T09:06:22.280Z,17.30
2023-04-02T09:09:00.504Z,17.40
2023-04-02T09:11:36.268Z,17.40
2023-04-02T09:14:15.517Z,17.40
2023-04-02T09:23:31.864Z,17.50
2023-04-02T09:26:04.525Z,17.60
2023-04-02T09:28:46.422Z,17.60
2023-04-02T09:31:28.711Z,17.70
2023-04-02T09:33:58.033Z,17.70
2023-04-02T09:36:37.220Z,17.70
2023-04-02T09:42:05.001Z,17.80
2023-04-02T09:44:34.967Z,17.80
2023-04-02T09:47:08.815Z,17.80
2023-04-02T09:50:01.899Z,17.90
2023-04-02T09:52:34.067Z,17.90
2023-04-02T09:55:22.054Z,17.90
2023-04-02T09:58:08.284Z,17.90
2023-04-02T10:00:36.958Z,18.00
2023-04-02T10:03:24.297Z,18.00
2023-04-02T10:06:09.110Z,18.00
2023-04-02T10:08:39.051Z,18.10
2023-04-02T10:11:11.481Z,18.10
2023-04-02T10:17:13.773Z,18.10
2023-04-02T10:27:10.780Z,18.20
2023-04-02T10:38:16.513Z,18.30
2023-04-02T10:45:24.867Z,18.40
2023-04-02T10:59:12.429Z,18.70
2023-04-02T11:01:43.888Z,18.80
2023-04-02T11:04:21.211Z,18.90
2023-04-02T11:07:14.860Z,18.90
2023-04-02T11:10:13.701Z,19.00
2023-04-02T11:12:52.826Z,19.10
2023-04-02T11:15:31.691Z,19.30
2023-04-02T11:18:05.668Z,19.40
2023-04-02T11:24:52.092Z,19.90
2023-04-02T11:31:04.839Z,20.60
2023-04-02T11:33:56.104Z,20.90
2023-04-02T11:37:33.348Z,21.30
2023-04-02T11:44:02.302Z,21.90
2023-04-02T13:37:11.143Z,23.00
2023-04-02T13:40:04.260Z,23.70
2023-04-02T13:43:09.567Z,24.30
2023-04-02T13:45:46.028Z,24.90
2023-04-02T13:48:30.230Z,25.50
2023-04-02T13:51:11.592Z,26.10
2023-04-02T13:54:17.140Z,26.40
2023-04-02T13:59:54.830Z,26.90
2023-04-02T14:02:43.918Z,26.40
2023-04-02T14:05:33.575Z,26.10
2023-04-02T14:50:00.509Z,23.60
2023-04-02T14:52:34.690Z,23.50
2023-04-02T14:55:07.295Z,23.50
2023-04-02T14:57:39.740Z,23.40
2023-04-02T15:00:20.621Z,23.40
2023-04-02T15:02:54.364Z,24.00
2023-04-02T15:11:54.355Z,24.90
2023-04-02T15:16:48.239Z,25.70
2023-04-02T15:22:48.732Z,27.10
2023-04-02T15:25:52.937Z,27.10
2023-04-02T15:28:34.308Z,27.00
2023-04-02T15:31:08.318Z,26.40
2023-04-02T15:37:52.573Z,25.60
2023-04-02T15:55:28.474Z,24.40
2023-04-02T16:12:10.625Z,23.20
2023-04-02T16:15:06.591Z,23.10
2023-04-02T16:17:57.510Z,23.00
2023-04-02T16:20:48.538Z,22.80
2023-04-02T16:27:48.169Z,22.60
2023-04-02T16:38:09.246Z,22.30
2023-04-02T16:41:25.593Z,22.20
2023-04-02T16:52:14.467Z,22.00
2023-04-02T16:55:35.260Z,21.90
2023-04-02T17:02:19.321Z,21.80
2023-04-02T17:12:49.317Z,21.50
2023-04-02T17:16:00.710Z,21.50
2023-04-02T17:19:04.700Z,21.40
2023-04-02T17:26:14.654Z,21.30
2023-04-02T17:29:07.910Z,21.20
2023-04-02T17:32:43.276Z,21.10
2023-04-02T17:35:30.588Z,21.10
2023-04-02T17:38:12.854Z,21.00
2023-04-02T17:40:50.724Z,21.00
2023-04-02T18:09:49.641Z,20.40
2023-04-02T18:20:40.679Z,20.20
2023-04-02T18:25:12.570Z,20.10
2023-04-02T18:27:54.256Z,20.10
2023-04-02T18:30:54.599Z,20.00
2023-04-02T18:44:48.908Z,19.70
2023-04-02T18:47:26.377Z,19.70
2023-04-02T18:50:06.715Z,19.60
2023-04-02T18:52:36.295Z,19.60
2023-04-02T18:55:09.235Z,19.50
2023-04-02T18:57:42.298Z,19.50
2023-04-02T19:00:23.415Z,19.40
2023-04-02T19:02:58.636Z,19.40
2023-04-02T19:05:34.228Z,19.30
2023-04-02T19:08:09.766Z,19.30
2023-04-02T19:10:40.034Z,19.20
2023-04-02T19:13:14.509Z,19.20
2023-04-02T19:16:13.605Z,19.10
2023-04-02T19:18:57.647Z,19.10
2023-04-02T19:21:34.644Z,19.00
2023-04-02T19:24:17.460Z,19.10
2023-04-02T19:26:53.176Z,19.00
2023-04-02T19:29:31.722Z,19.00
2023-04-02T19:32:08.093Z,18.90
2023-04-02T19:34:41.682Z,18.90
2023-04-02T19:37:18.163Z,18.80
2023-04-02T19:40:11.716Z,18.80
2023-04-02T19:42:48.078Z,18.70
2023-04-02T19:45:29.727Z,18.70
2023-04-02T19:48:00.568Z,18.70
2023-04-02T19:50:30.700Z,18.70
2023-04-02T19:52:59.133Z,18.60
2023-04-02T19:55:28.914Z,18.60
2023-04-02T19:58:04.454Z,18.50
2023-04-02T20:00:46.031Z,18.50
2023-04-02T20:03:14.613Z,18.50
2023-04-02T20:05:44.416Z,18.40
2023-04-02T20:08:13.455Z,18.40
2023-04-02T20:10:42.741Z,18.40
2023-04-02T20:13:11.288Z,18.40
2023-04-02T20:15:41.731Z,18.30
2023-04-02T20:18:11.201Z,18.30
2023-04-02T20:20:40.346Z,18.30
2023-04-02T20:23:10.979Z,18.30
2023-04-02T20:25:40.078Z,18.30
2023-04-02T20:28:08.463Z,18.20
2023-04-02T20:30:38.261Z,18.20
2023-04-02T20:33:06.942Z,18.20
2023-04-02T20:35:35.806Z,18.10
2023-04-02T20:38:06.628Z,18.20
2023-04-02T20:40:36.849Z,18.10
2023-04-02T20:43:05.532Z,18.00
2023-04-02T20:45:33.902Z,18.10
2023-04-02T20:48:02.231Z,18.00
2023-04-02T20:50:30.934Z,18.00
2023-04-02T20:52:59.874Z,18.00
2023-04-02T20:55:28.273Z,18.00
2023-04-02T20:57:57.923Z,17.90
2023-04-02T21:00:26.253Z,17.90
2023-04-02T21:02:54.807Z,17.90
2023-04-02T21:05:23.261Z,17.90
2023-04-02T21:07:51.639Z,17.90
2023-04-02T21:10:21.704Z,17.80
2023-04-02T21:12:50.518Z,17.80
2023-04-02T21:15:20.690Z,17.80
2023-04-02T21:17:49.154Z,17.70
2023-04-02T21:20:17.714Z,17.80
2023-04-02T21:22:46.089Z,17.80
2023-04-02T21:25:14.422Z,17.70
2023-04-02T21:27:42.688Z,17.70
2023-04-02T21:30:12.280Z,17.70
2023-04-02T21:32:42.091Z,17.70
2023-04-02T21:35:10.802Z,17.60
2023-04-02T21:37:39.519Z,17.60
2023-04-02T21:40:09.688Z,17.60
2023-04-02T21:42:38.601Z,17.60
2023-04-02T21:45:08.599Z,17.50
2023-04-02T21:47:36.914Z,17.50
2023-04-02T21:50:08.658Z,17.50
2023-04-02T21:52:37.110Z,17.50
2023-04-02T21:55:06.079Z,17.50
2023-04-02T21:57:34.388Z,17.40
2023-04-02T22:00:08.156Z,17.40
2023-04-02T22:02:36.446Z,17.40
2023-04-02T22:05:06.980Z,17.40
2023-04-02T22:07:35.203Z,17.40
2023-04-02T22:10:03.681Z,17.30
2023-04-02T22:12:31.873Z,17.30
2023-04-02T22:15:00.149Z,17.30
2023-04-02T22:17:28.435Z,17.30
2023-04-02T22:19:56.680Z,17.30
2023-04-02T22:22:26.311Z,17.20
2023-04-02T22:24:56.277Z,17.20
2023-04-02T22:27:24.562Z,17.20
2023-04-02T22:29:52.826Z,17.20
2023-04-02T22:32:21.130Z,17.20
2023-04-02T22:34:49.748Z,17.10
2023-04-02T22:37:18.004Z,17.20
2023-04-02T22:39:47.607Z,17.10
2023-04-02T22:42:15.838Z,17.10
2023-04-02T22:44:44.082Z,17.10
2023-04-02T22:47:12.340Z,17.10
2023-04-02T22:49:40.560Z,17.00
2023-04-02T22:52:09.129Z,17.00
2023-04-02T22:54:37.465Z,17.00
2023-04-02T22:57:07.216Z,17.00
2023-04-02T22:59:35.472Z,16.90
2023-04-02T23:02:03.869Z,16.90
2023-04-02T23:04:32.148Z,16.90
2023-04-02T23:07:00.372Z,16.90
2023-04-02T23:09:28.784Z,16.90
2023-04-02T23:11:56.996Z,16.90
2023-04-02T23:14:26.704Z,16.90
2023-04-02T23:16:54.947Z,16.90
2023-04-02T23:19:23.153Z,16.90
2023-04-02T23:21:51.717Z,16.80
2023-04-02T23:24:19.971Z,16.80
2023-04-02T23:26:48.243Z,16.80
2023-04-02T23:29:16.550Z,16.80
2023-04-02T23:31:46.780Z,16.80
2023-04-02T23:34:15.187Z,16.70
2023-04-02T23:36:43.574Z,16.70
2023-04-02T23:39:13.525Z,16.70
2023-04-02T23:41:43.112Z,16.70
2023-04-02T23:44:11.682Z,16.70
2023-04-02T23:46:39.979Z,16.70
2023-04-02T23:49:12.955Z,16.60
2023-04-02T23:51:41.508Z,16.60
2023-04-02T23:54:09.778Z,16.60
2023-04-02T23:56:38.060Z,16.60
2023-04-02T23:59:06.450Z,16.60
